Terminal Aerodrome Forecast
Issued by NWS

Home | Current Version | Previous Version | Graphics & Text | Print | Product List | Glossary On
Versions: 1 2 3 4 5 6 7 8 9 10 11 12 13 14 15 16
000
FTUS43 KIWX 022300
TAFSBN
TAF
KSBN 022338Z 0300/0324 VRB03KT P6SM BKN120
     FM031000 13012KT 3SM -SN OVC040
     FM031400 15012KT 1SM -SNPL BR OVC015 WS020/20040KT
     FM031700 17013G20KT 3/4SM -FZRA BR OVC006 WS020/23050KT
     FM032000 20016G23KT 1SM -RA BR OVC004=

USA.gov is the U.S. government's official web portal to all federal, state and local government web resources and services.